Overview Statistics Trail Chart Weather Telemetry Raw packets
 

This is the latest recevied weather packets stored in our database for station/object N1SU-13. If no packets are shown the sender has not sent any weather packets the latest 10 day(s).

<< 17 18 19 20 21 22 23 >>
Time Temp. Humidity Pressure Rain* Wind** Luminosity Snow
1788420171 11.11° C 86% 1006.7 hPa 0 mm - - -
1788419579 11.11° C 84% 1006.7 hPa 0 mm - - -
1788418897 11.11° C 84% 1006.6 hPa 0 mm - - -
1788418196 11.11° C 85% 1006.8 hPa 0 mm - - -
1788417530 11.11° C 86% 1006.7 hPa 0 mm - - -
1788416944 11.11° C 85% 1006.6 hPa 0 mm - - -
1788416287 11.11° C 86% 1006.6 hPa 0 mm - - -
1788415618 11.11° C 86% 1006.5 hPa 0 mm - - -
1788415061 11.11° C 86% 1006.5 hPa 0 mm - - -
1788414482 11.11° C 86% 1006.6 hPa 0 mm - - -
1788413877 11.11° C 86% 1006.7 hPa 0 mm - - -
1788413270 11.11° C 87% 1006.7 hPa 0 mm - - -
1788412645 11.67° C 87% 1006.5 hPa 0 mm - - -
1788412073 11.67° C 87% 1006.6 hPa 0 mm - - -
1788411501 11.67° C 87% 1006.4 hPa 0 mm - - -
1788410893 11.67° C 87% 1006.5 hPa 0 mm - - -
1788410284 11.67° C 86% 1006.5 hPa 0 mm - - -
1788409700 11.67° C 87% 1006.4 hPa 0 mm - - -
1788409037 11.67° C 88% 1006.3 hPa 0 mm - - -
1788408376 11.67° C 89% 1006.3 hPa 0 mm - - -
1788407744 12.22° C 89% 1006.1 hPa 0 mm - - -
1788407512 14.44° C 84% 1002.8 hPa 0.76 mm - - -
1788407092 12.22° C 89% 1005.9 hPa 0 mm - - -
1788406519 12.22° C 89% 1005.7 hPa 0 mm - - -
1788405892 12.22° C 90% 1005.8 hPa 0 mm - - -

* Rain latest hour (hover to see other rain measurements)
** Current wind speed in m/s (hover to see current wind gust speed)